createdAt,value
2022-08-09T00:01:10.646Z,8.60
2022-08-09T00:04:00.210Z,8.52
2022-08-09T00:06:28.255Z,9.00
2022-08-09T00:08:58.705Z,8.45
2022-08-09T00:11:56.835Z,8.63
2022-08-09T00:14:17.332Z,8.30
2022-08-09T00:16:49.107Z,8.95
2022-08-09T00:19:18.437Z,8.57
2022-08-09T00:21:55.968Z,8.18
2022-08-09T00:24:24.766Z,8.98
2022-08-09T00:26:54.055Z,8.88
2022-08-09T00:29:39.517Z,8.30
2022-08-09T00:32:07.743Z,8.57
2022-08-09T00:34:39.344Z,8.45
2022-08-09T00:37:13.116Z,9.10
2022-08-09T00:40:13.802Z,8.63
2022-08-09T00:44:25.051Z,8.40
2022-08-09T00:45:16.149Z,8.60
2022-08-09T00:47:43.381Z,8.63
2022-08-09T00:50:14.330Z,8.68
2022-08-09T00:52:41.907Z,8.48
2022-08-09T00:55:10.297Z,8.60
2022-08-09T00:57:59.324Z,8.70
2022-08-09T01:00:27.121Z,8.35
2022-08-09T01:03:17.833Z,8.18
2022-08-09T01:05:59.558Z,8.32
2022-08-09T01:08:59.764Z,8.20
2022-08-09T01:11:55.312Z,8.30
2022-08-09T01:15:05.842Z,8.38
2022-08-09T01:17:56.747Z,8.38
2022-08-09T01:20:52.352Z,8.30
2022-08-09T01:24:01.930Z,8.02
2022-08-09T01:26:37.470Z,8.00
2022-08-09T01:29:06.348Z,8.65
2022-08-09T01:32:29.982Z,8.43
2022-08-09T01:34:24.977Z,8.00
2022-08-09T01:36:56.303Z,8.00
2022-08-09T01:39:26.137Z,8.30
2022-08-09T01:41:59.836Z,8.73
2022-08-09T01:44:30.084Z,8.20
2022-08-09T01:46:59.036Z,8.50
2022-08-09T01:49:38.722Z,8.30
2022-08-09T01:52:10.334Z,8.13
2022-08-09T01:54:41.058Z,8.38
2022-08-09T01:57:25.001Z,8.20
2022-08-09T02:00:00.346Z,9.05
2022-08-09T02:02:46.357Z,8.52
2022-08-09T02:05:16.170Z,8.70
2022-08-09T02:08:40.327Z,8.13
2022-08-09T02:11:02.822Z,8.27
2022-08-09T02:13:55.313Z,8.40
2022-08-09T02:16:59.683Z,8.23
2022-08-09T02:19:22.835Z,8.00
2022-08-09T02:21:55.284Z,8.60
2022-08-09T02:24:26.894Z,8.40
2022-08-09T02:26:58.681Z,8.40
2022-08-09T02:29:31.396Z,8.70
2022-08-09T02:32:01.772Z,8.15
2022-08-09T02:34:41.614Z,8.15
2022-08-09T02:37:24.069Z,8.45
2022-08-09T02:40:03.537Z,8.38
2022-08-09T02:42:39.387Z,8.40
2022-08-09T02:45:16.797Z,8.20
2022-08-09T02:47:57.377Z,8.17
2022-08-09T02:50:29.048Z,8.70
2022-08-09T02:53:01.202Z,7.90
2022-08-09T02:55:39.379Z,8.27
2022-08-09T02:58:32.548Z,8.07
2022-08-09T03:01:06.202Z,8.17
2022-08-09T03:04:12.215Z,8.30
2022-08-09T03:06:27.698Z,8.20
2022-08-09T03:08:55.370Z,8.00
2022-08-09T03:11:29.655Z,8.20
2022-08-09T03:14:12.729Z,8.20
2022-08-09T03:16:45.112Z,8.57
2022-08-09T03:19:52.471Z,8.23
2022-08-09T03:22:12.334Z,7.90
2022-08-09T03:25:05.640Z,7.97
2022-08-09T03:27:45.247Z,8.30
2022-08-09T03:30:23.654Z,8.05
2022-08-09T03:33:13.400Z,8.30
2022-08-09T03:36:12.452Z,8.10
2022-08-09T03:38:32.647Z,8.30
2022-08-09T03:40:59.503Z,8.30
2022-08-09T03:43:31.447Z,8.80
2022-08-09T03:46:13.625Z,8.03
2022-08-09T03:48:51.491Z,8.27
2022-08-09T03:51:55.296Z,8.30
2022-08-09T03:54:11.183Z,8.70
2022-08-09T03:56:41.189Z,8.10
2022-08-09T03:59:17.136Z,8.30
2022-08-09T04:01:50.486Z,8.47
2022-08-09T04:04:18.107Z,8.10
2022-08-09T04:06:49.130Z,8.00
2022-08-09T04:09:44.339Z,8.10
2022-08-09T04:12:30.800Z,8.33
2022-08-09T04:15:01.627Z,8.70
2022-08-09T04:17:29.943Z,9.07
2022-08-09T04:19:58.813Z,8.67
2022-08-09T04:22:29.872Z,8.70
2022-08-09T04:24:58.934Z,8.80
2022-08-09T04:27:25.833Z,8.90
2022-08-09T04:29:55.980Z,9.00
2022-08-09T04:32:23.776Z,9.07
2022-08-09T04:34:58.450Z,8.93
2022-08-09T04:37:45.727Z,8.73
2022-08-09T04:40:28.503Z,8.77
2022-08-09T04:43:00.151Z,8.60
2022-08-09T04:45:30.722Z,8.90
2022-08-09T04:48:03.080Z,8.75
2022-08-09T04:50:35.149Z,9.10
2022-08-09T04:53:13.543Z,8.90
2022-08-09T04:55:58.707Z,8.77
2022-08-09T04:58:32.788Z,8.45
2022-08-09T05:01:01.371Z,9.20
2022-08-09T05:03:41.157Z,8.07
2022-08-09T05:06:12.055Z,8.47
2022-08-09T05:08:52.586Z,7.90
2022-08-09T05:11:32.258Z,8.35
2022-08-09T05:14:06.024Z,8.20
2022-08-09T05:16:58.206Z,8.20
2022-08-09T05:19:26.128Z,8.68
2022-08-09T05:21:58.966Z,8.70
2022-08-09T05:24:27.201Z,8.52
2022-08-09T05:26:54.382Z,8.57
2022-08-09T05:29:23.862Z,8.60
2022-08-09T05:31:57.691Z,8.97
2022-08-09T05:34:31.455Z,8.90
2022-08-09T05:37:01.639Z,8.80
2022-08-09T05:39:35.641Z,8.75
2022-08-09T05:42:04.789Z,9.00
2022-08-09T05:44:35.073Z,8.95
2022-08-09T05:47:04.897Z,8.88
2022-08-09T05:50:24.258Z,9.30
2022-08-09T05:52:21.003Z,9.18
2022-08-09T05:54:49.167Z,9.38
2022-08-09T05:57:17.499Z,9.63
2022-08-09T05:59:46.374Z,9.80
2022-08-09T06:02:17.084Z,9.95
2022-08-09T06:04:45.912Z,9.88
2022-08-09T06:07:21.714Z,10.00
2022-08-09T06:10:01.811Z,9.52
2022-08-09T06:12:29.581Z,9.60
2022-08-09T06:15:00.698Z,9.32
2022-08-09T06:17:40.075Z,9.35
2022-08-09T06:20:08.283Z,9.38
2022-08-09T06:22:35.567Z,9.25
2022-08-09T06:25:02.981Z,9.18
2022-08-09T06:27:42.533Z,9.57
2022-08-09T06:30:16.979Z,9.05
2022-08-09T06:32:59.733Z,9.35
2022-08-09T06:35:56.605Z,9.68
2022-08-09T06:38:15.903Z,9.32
2022-08-09T06:40:43.407Z,9.60
2022-08-09T06:43:11.456Z,9.27
2022-08-09T06:46:07.443Z,9.10
2022-08-09T06:48:30.988Z,9.07
2022-08-09T06:51:00.979Z,9.30
2022-08-09T06:53:38.013Z,9.13
2022-08-09T06:56:07.127Z,9.30
2022-08-09T07:00:48.598Z,9.13
2022-08-09T07:01:24.004Z,9.23
2022-08-09T07:03:52.533Z,9.00
2022-08-09T07:06:21.449Z,9.13
2022-08-09T07:08:52.253Z,9.18
2022-08-09T07:11:25.297Z,8.90
2022-08-09T07:14:04.775Z,9.05
2022-08-09T07:16:41.578Z,9.38
2022-08-09T07:19:22.944Z,8.98
2022-08-09T07:21:57.502Z,8.77
2022-08-09T07:24:31.935Z,9.02
2022-08-09T07:27:23.879Z,8.93
2022-08-09T07:29:57.121Z,9.50
2022-08-09T07:32:31.879Z,8.90
2022-08-09T07:35:10.496Z,9.07
2022-08-09T07:37:45.620Z,9.27
2022-08-09T07:40:17.274Z,8.85
2022-08-09T07:42:54.142Z,8.85
2022-08-09T07:45:39.621Z,9.02
2022-08-09T07:48:08.325Z,9.30
2022-08-09T07:51:03.011Z,9.07
2022-08-09T07:54:07.375Z,9.20
2022-08-09T07:56:27.422Z,8.95
2022-08-09T07:58:55.608Z,9.10
2022-08-09T08:01:33.179Z,8.80
2022-08-09T08:04:04.056Z,9.00
2022-08-09T08:06:37.596Z,9.10
2022-08-09T08:09:35.469Z,8.90
2022-08-09T08:12:34.405Z,8.98
2022-08-09T08:14:57.014Z,9.50
2022-08-09T08:17:35.540Z,9.45
2022-08-09T08:20:12.737Z,9.60
2022-08-09T08:22:40.898Z,9.30
2022-08-09T08:25:09.369Z,9.52
2022-08-09T08:27:42.879Z,9.20
2022-08-09T08:30:11.338Z,9.07
2022-08-09T08:32:52.438Z,9.40
2022-08-09T08:35:20.235Z,9.40
2022-08-09T08:38:04.819Z,9.50
2022-08-09T08:40:38.185Z,8.60
2022-08-09T08:43:13.553Z,9.10
2022-08-09T08:45:51.504Z,9.40
2022-08-09T08:48:22.250Z,9.10
2022-08-09T08:50:51.972Z,9.25
2022-08-09T08:53:22.033Z,9.00
2022-08-09T08:55:49.322Z,9.20
2022-08-09T08:58:27.161Z,8.98
2022-08-09T09:00:57.048Z,9.15
2022-08-09T09:03:37.238Z,9.05
2022-08-09T09:06:05.806Z,9.00
2022-08-09T09:08:40.296Z,8.90
2022-08-09T09:11:13.361Z,9.20
2022-08-09T09:13:56.972Z,9.10
2022-08-09T09:16:32.226Z,8.80
2022-08-09T09:21:58.370Z,8.85
2022-08-09T09:24:31.367Z,9.00
2022-08-09T09:27:00.936Z,9.10
2022-08-09T09:29:45.950Z,9.27
2022-08-09T09:32:34.837Z,9.18
2022-08-09T09:35:15.931Z,9.23
2022-08-09T09:37:45.998Z,8.88
2022-08-09T09:40:13.167Z,9.13
2022-08-09T09:42:42.845Z,9.40
2022-08-09T09:45:14.419Z,9.18
2022-08-09T09:47:58.445Z,9.05
2022-08-09T09:50:50.691Z,9.20
2022-08-09T09:53:57.542Z,9.00
2022-08-09T09:56:20.150Z,9.10
2022-08-09T09:58:59.665Z,9.00
2022-08-09T10:01:37.451Z,9.13
2022-08-09T10:04:16.257Z,8.85
2022-08-09T10:06:52.135Z,9.38
2022-08-09T10:09:22.372Z,9.15
2022-08-09T10:12:12.881Z,9.63
2022-08-09T10:14:48.810Z,9.40
2022-08-09T10:17:50.306Z,9.55
2022-08-09T10:20:35.396Z,9.10
2022-08-09T10:23:25.031Z,9.40
2022-08-09T10:26:07.983Z,9.10
2022-08-09T10:28:39.939Z,9.50
2022-08-09T10:32:27.828Z,9.73
2022-08-09T10:34:09.122Z,9.27
2022-08-09T10:36:43.464Z,9.23
2022-08-09T10:39:16.014Z,9.85
2022-08-09T10:41:47.742Z,9.57
2022-08-09T10:44:21.762Z,8.90
2022-08-09T10:48:12.459Z,8.80
2022-08-09T10:50:06.688Z,9.20
2022-08-09T10:53:04.308Z,9.25
2022-08-09T10:55:49.171Z,9.43
2022-08-09T10:58:37.132Z,8.93
2022-08-09T11:03:02.113Z,8.98
2022-08-09T11:04:30.943Z,8.75
2022-08-09T11:06:59.745Z,9.30
2022-08-09T11:09:47.349Z,8.63
2022-08-09T11:12:18.187Z,8.90
2022-08-09T11:14:51.239Z,9.00
2022-08-09T11:17:19.406Z,9.23
2022-08-09T11:20:08.132Z,9.45
2022-08-09T11:22:56.549Z,9.20
2022-08-09T11:25:45.177Z,9.25
2022-08-09T11:28:38.882Z,8.93
2022-08-09T11:31:43.366Z,9.20
2022-08-09T11:34:42.849Z,9.25
2022-08-09T11:37:18.291Z,9.40
2022-08-09T11:40:06.546Z,9.45
2022-08-09T11:42:49.698Z,9.15
2022-08-09T11:45:22.243Z,9.38
2022-08-09T11:47:54.552Z,9.63
2022-08-09T11:50:56.896Z,9.60
2022-08-09T11:53:58.484Z,9.48
2022-08-09T11:56:02.247Z,9.10
2022-08-09T11:58:33.192Z,8.80
2022-08-09T12:01:15.457Z,9.30
2022-08-09T12:04:00.944Z,9.20
2022-08-09T12:06:32.834Z,9.20
2022-08-09T12:09:06.550Z,9.48
2022-08-09T12:12:12.839Z,9.43
2022-08-09T12:15:07.570Z,9.43
2022-08-09T12:17:43.377Z,9.38
2022-08-09T12:20:16.707Z,10.20
2022-08-09T12:22:55.966Z,9.27
2022-08-09T12:25:31.839Z,9.43
2022-08-09T12:28:58.674Z,9.20
2022-08-09T12:31:59.121Z,9.65
2022-08-09T12:34:35.530Z,9.25
2022-08-09T12:37:09.760Z,9.07
2022-08-09T12:40:10.030Z,9.15
2022-08-09T12:42:37.476Z,9.23
2022-08-09T12:45:32.077Z,8.80
2022-08-09T12:47:52.957Z,9.55
2022-08-09T12:50:23.660Z,8.93
2022-08-09T12:53:08.585Z,8.80
2022-08-09T12:56:14.816Z,9.00
2022-08-09T12:58:27.777Z,9.18
2022-08-09T13:00:55.269Z,9.05
2022-08-09T13:03:54.116Z,9.30
2022-08-09T13:06:34.031Z,9.27
2022-08-09T13:09:22.138Z,8.50
2022-08-09T13:12:02.043Z,8.95
2022-08-09T13:14:43.837Z,8.60
2022-08-09T13:17:21.823Z,8.95
2022-08-09T13:20:13.220Z,9.50
2022-08-09T13:23:06.125Z,8.65
2022-08-09T13:25:52.915Z,8.88
2022-08-09T13:28:34.463Z,8.93
2022-08-09T13:32:17.351Z,9.00
2022-08-09T13:33:58.779Z,9.00
2022-08-09T13:36:40.392Z,8.88
2022-08-09T13:41:19.283Z,8.60
2022-08-09T13:42:12.157Z,9.02
2022-08-09T13:44:42.061Z,9.88
2022-08-09T13:47:31.042Z,9.10
2022-08-09T13:50:12.646Z,8.80
2022-08-09T13:52:47.573Z,8.85
2022-08-09T13:55:15.513Z,8.80
2022-08-09T13:57:56.168Z,8.85
2022-08-09T14:00:28.328Z,8.73
2022-08-09T14:03:04.330Z,8.63
2022-08-09T14:05:59.040Z,8.93
2022-08-09T14:08:28.050Z,8.40
2022-08-09T14:10:55.469Z,8.60
2022-08-09T14:13:28.008Z,8.57
2022-08-09T14:16:16.035Z,8.77
2022-08-09T14:18:45.798Z,9.32
2022-08-09T14:21:18.419Z,8.77
2022-08-09T14:23:55.017Z,9.10
2022-08-09T14:26:31.583Z,8.82
2022-08-09T14:29:03.016Z,9.13
2022-08-09T14:31:35.963Z,8.80
2022-08-09T14:34:31.516Z,8.73
2022-08-09T14:37:01.860Z,9.68
2022-08-09T14:39:45.646Z,8.90
2022-08-09T14:42:28.817Z,9.30
2022-08-09T14:46:40.405Z,9.13
2022-08-09T14:47:57.417Z,9.55
2022-08-09T14:50:26.874Z,8.50
2022-08-09T14:52:53.740Z,8.50
2022-08-09T14:55:21.461Z,8.75
2022-08-09T14:57:49.262Z,8.65
2022-08-09T15:00:17.227Z,8.60
2022-08-09T15:02:47.226Z,8.32
2022-08-09T15:05:18.655Z,9.02
2022-08-09T15:07:56.345Z,8.70
2022-08-09T15:10:28.593Z,9.00
2022-08-09T15:12:59.525Z,9.02
2022-08-09T15:15:28.854Z,8.80
2022-08-09T15:17:55.897Z,8.55
2022-08-09T15:21:53.426Z,7.70
2022-08-09T15:24:01.310Z,7.32
2022-08-09T15:25:58.436Z,8.45
2022-08-09T15:28:28.517Z,8.27
2022-08-09T15:31:08.946Z,8.43
2022-08-09T15:34:32.907Z,8.63
2022-08-09T15:36:29.138Z,8.68
2022-08-09T15:39:00.096Z,9.30
2022-08-09T15:41:31.953Z,8.98
2022-08-09T15:44:03.715Z,9.07
2022-08-09T15:46:33.199Z,8.70
2022-08-09T15:49:22.299Z,8.60
2022-08-09T15:52:04.712Z,8.80
2022-08-09T15:54:50.717Z,8.35
2022-08-09T15:57:35.030Z,8.50
2022-08-09T16:00:13.806Z,8.60
2022-08-09T16:02:53.333Z,9.10
2022-08-09T16:05:22.025Z,8.60
2022-08-09T16:07:49.428Z,8.50
2022-08-09T16:10:55.170Z,9.20
2022-08-09T16:13:04.588Z,9.23
2022-08-09T16:16:11.342Z,8.60
2022-08-09T16:18:33.002Z,8.65
2022-08-09T16:21:01.111Z,8.65
2022-08-09T16:23:27.900Z,8.73
2022-08-09T16:26:01.070Z,8.70
2022-08-09T16:28:30.339Z,8.63
2022-08-09T16:30:59.586Z,8.95
2022-08-09T16:33:27.479Z,8.48
2022-08-09T16:36:00.979Z,9.00
2022-08-09T16:38:31.363Z,8.65
2022-08-09T16:40:59.041Z,8.98
2022-08-09T16:43:31.344Z,8.75
2022-08-09T16:45:58.321Z,9.13
2022-08-09T16:48:50.855Z,8.90
2022-08-09T16:51:14.868Z,9.20
2022-08-09T16:56:34.559Z,9.27
2022-08-09T16:59:10.511Z,9.27
2022-08-09T17:01:43.839Z,9.18
2022-08-09T17:04:28.256Z,9.00
2022-08-09T17:08:41.192Z,9.35
2022-08-09T17:09:46.219Z,9.15
2022-08-09T17:12:14.004Z,9.40
2022-08-09T17:14:46.430Z,9.50
2022-08-09T17:17:27.157Z,9.25
2022-08-09T17:20:28.645Z,9.13
2022-08-09T17:22:49.475Z,8.60
2022-08-09T17:25:17.249Z,8.70
2022-08-09T17:27:49.112Z,9.00
2022-08-09T17:30:16.673Z,9.00
2022-08-09T17:32:44.392Z,9.07
2022-08-09T17:35:14.200Z,8.85
2022-08-09T17:38:02.317Z,8.98
2022-08-09T17:40:30.339Z,8.80
2022-08-09T17:43:10.613Z,9.20
2022-08-09T17:46:03.904Z,9.13
2022-08-09T17:48:38.506Z,9.00
2022-08-09T17:51:09.996Z,9.23
2022-08-09T17:53:51.933Z,9.35
2022-08-09T17:56:27.840Z,9.05
2022-08-09T17:58:57.002Z,8.95
2022-08-09T18:01:24.012Z,9.43
2022-08-09T18:03:54.509Z,9.20
2022-08-09T18:06:30.914Z,9.30
2022-08-09T18:09:03.793Z,8.95
2022-08-09T18:11:46.971Z,9.23
2022-08-09T18:14:23.462Z,8.80
2022-08-09T18:16:53.135Z,9.00
2022-08-09T18:20:54.367Z,9.95
2022-08-09T18:22:13.238Z,8.93
2022-08-09T18:24:43.736Z,9.10
2022-08-09T18:27:18.732Z,9.00
2022-08-09T18:30:42.021Z,8.88
2022-08-09T18:32:47.114Z,9.30
2022-08-09T18:35:56.323Z,8.73
2022-08-09T18:38:08.771Z,8.93
2022-08-09T18:40:35.628Z,8.60
2022-08-09T18:43:03.777Z,8.93
2022-08-09T18:46:47.706Z,9.27
2022-08-09T18:48:18.444Z,9.30
2022-08-09T18:50:47.243Z,9.20
2022-08-09T18:53:16.614Z,8.90
2022-08-09T18:55:45.779Z,8.80
2022-08-09T18:58:33.105Z,9.00
2022-08-09T19:01:00.467Z,8.90
2022-08-09T19:03:27.522Z,9.05
2022-08-09T19:06:03.176Z,9.00
2022-08-09T19:08:31.015Z,8.88
2022-08-09T19:10:57.847Z,9.10
2022-08-09T19:13:49.715Z,8.85
2022-08-09T19:16:13.198Z,9.20
2022-08-09T19:18:45.657Z,9.10
2022-08-09T19:21:12.871Z,9.20
2022-08-09T19:24:35.890Z,9.10
2022-08-09T19:26:32.164Z,8.98
2022-08-09T19:29:15.098Z,9.07
2022-08-09T19:31:46.564Z,8.68
2022-08-09T19:34:22.027Z,9.38
2022-08-09T19:36:51.091Z,9.30
2022-08-09T19:39:20.745Z,9.27
2022-08-09T19:41:56.479Z,9.20
2022-08-09T19:44:23.419Z,9.30
2022-08-09T19:46:53.699Z,9.38
2022-08-09T19:50:09.375Z,9.43
2022-08-09T19:52:10.103Z,9.35
2022-08-09T19:54:39.865Z,9.70
2022-08-09T19:57:08.494Z,9.25
2022-08-09T19:59:59.666Z,9.40
2022-08-09T20:04:23.874Z,9.10
2022-08-09T20:05:14.844Z,9.15
2022-08-09T20:08:00.230Z,9.10
2022-08-09T20:10:36.511Z,9.60
2022-08-09T20:13:05.775Z,9.32
2022-08-09T20:16:36.709Z,9.23
2022-08-09T20:18:22.509Z,9.23
2022-08-09T20:20:51.356Z,9.05
2022-08-09T20:23:23.099Z,8.93
2022-08-09T20:25:52.887Z,9.50
2022-08-09T20:28:28.102Z,9.20
2022-08-09T20:31:04.694Z,9.00
2022-08-09T20:33:39.107Z,8.85
2022-08-09T20:36:11.687Z,9.00
2022-08-09T20:39:18.830Z,8.85
2022-08-09T20:41:32.129Z,8.68
2022-08-09T20:44:03.027Z,9.25
2022-08-09T20:46:41.683Z,9.00
2022-08-09T20:49:11.518Z,8.80
2022-08-09T20:51:40.872Z,9.10
2022-08-09T20:54:12.678Z,8.70
2022-08-09T20:56:49.493Z,9.30
2022-08-09T20:59:17.601Z,9.27
2022-08-09T21:01:53.642Z,9.13
2022-08-09T21:05:55.291Z,8.80
2022-08-09T21:07:12.060Z,9.10
2022-08-09T21:09:56.654Z,8.65
2022-08-09T21:15:16.099Z,9.18
2022-08-09T21:18:22.512Z,9.23
2022-08-09T21:20:31.912Z,8.80
2022-08-09T21:23:00.806Z,9.10
2022-08-09T21:25:56.154Z,8.50
2022-08-09T21:28:34.322Z,8.70
2022-08-09T21:31:13.608Z,8.90
2022-08-09T21:33:56.618Z,9.13
2022-08-09T21:36:27.985Z,9.00
2022-08-09T21:38:59.268Z,9.02
2022-08-09T21:42:05.929Z,8.57
2022-08-09T21:44:33.276Z,8.82
2022-08-09T21:47:07.956Z,8.88
2022-08-09T21:49:40.351Z,8.60
2022-08-09T21:52:17.049Z,8.88
2022-08-09T21:54:57.087Z,8.88
2022-08-09T21:57:39.218Z,9.10
2022-08-09T22:00:26.293Z,9.40
2022-08-09T22:02:58.897Z,9.23
2022-08-09T22:05:35.904Z,8.98
2022-08-09T22:08:13.818Z,9.00
2022-08-09T22:11:00.495Z,9.10
2022-08-09T22:13:34.081Z,9.30
2022-08-09T22:16:03.551Z,9.32
2022-08-09T22:18:33.031Z,9.10
2022-08-09T22:21:01.142Z,9.30
2022-08-09T22:23:35.582Z,9.20
2022-08-09T22:26:34.001Z,9.23
2022-08-09T22:29:07.039Z,9.23
2022-08-09T22:31:50.458Z,9.27
2022-08-09T22:34:27.959Z,9.20
2022-08-09T22:36:56.662Z,8.98
2022-08-09T22:39:55.706Z,9.18
2022-08-09T22:42:20.786Z,8.95
2022-08-09T22:44:48.648Z,9.20
2022-08-09T22:48:12.247Z,8.88
2022-08-09T22:50:13.794Z,8.95
2022-08-09T22:52:40.615Z,8.93
2022-08-09T22:55:08.557Z,8.70
2022-08-09T22:58:00.197Z,8.93
2022-08-09T23:00:29.295Z,8.82
2022-08-09T23:02:56.714Z,9.00
2022-08-09T23:05:25.549Z,8.85
2022-08-09T23:08:27.719Z,8.63
2022-08-09T23:10:57.057Z,8.90
2022-08-09T23:13:24.310Z,8.95
2022-08-09T23:16:03.315Z,8.90
2022-08-09T23:18:30.864Z,8.90
2022-08-09T23:20:57.859Z,9.00
2022-08-09T23:23:24.872Z,9.20
2022-08-09T23:25:51.831Z,8.82
2022-08-09T23:28:18.695Z,8.95
2022-08-09T23:30:51.185Z,8.70
2022-08-09T23:33:22.078Z,8.82
2022-08-09T23:36:05.654Z,9.07
2022-08-09T23:38:35.950Z,8.85
2022-08-09T23:41:29.036Z,8.90
2022-08-09T23:44:00.248Z,8.75
2022-08-09T23:46:28.667Z,9.00
2022-08-09T23:48:55.708Z,8.75
2022-08-09T23:51:22.787Z,9.05
2022-08-09T23:53:52.284Z,8.82
2022-08-09T23:56:40.005Z,9.13
2022-08-09T23:59:06.489Z,9.02
